Allport, Pennsylvania
Current Conditions -  °F | °C
As of 2:54 AM on Monday 24 Nov 2014 (Local Time) from KFIG Reporting Station
Overcast Overcast  
Wind Chill: 46°   Ceiling: 1400
Heat Index: 48°   Visibility: 10mi
Dew Point: 47°   Wind: 5mph
Humidity: 96%   Direction: 150°SSE
Pressure: 29.54"   Gusts: NA
Location:  40.96°N, 78.2°W
Report Text: KFIG 240754Z AUTO 15004KT 10SM OVC014 09/08 A2954 RMK AO2 RAB21E53 SLP000 P0000 T00890083
Loading
Personal Weather Stations






























Interactive Weather Map New forecast layout! Learn more

10-Day Weather Forecast

Advertisements
Track Severe Weather on mobile